sensor_id;sensor_type;location;lat;lon;timestamp;pressure;altitude;pressure_sealevel;temperature;humidity
38033;BME280;23841;48.524;1.342;2022-07-23T00:00:52;99436.78;;;25.32;nan
38033;BME280;23841;48.524;1.342;2022-07-23T00:03:17;99389.81;;;25.30;nan
38033;BME280;23841;48.524;1.342;2022-07-23T00:05:43;99407.00;;;25.30;nan
38033;BME280;23841;48.524;1.342;2022-07-23T00:08:08;99415.03;;;25.32;nan
38033;BME280;23841;48.524;1.342;2022-07-23T00:10:34;99407.84;;;25.31;nan
38033;BME280;23841;48.524;1.342;2022-07-23T00:13:00;99389.81;;;25.30;nan
38033;BME280;23841;48.524;1.342;2022-07-23T00:15:25;99439.38;;;25.22;nan
38033;BME280;23841;48.524;1.342;2022-07-23T00:17:51;99417.25;;;25.27;nan
38033;BME280;23841;48.524;1.342;2022-07-23T00:20:17;99435.28;;;25.28;nan
38033;BME280;23841;48.524;1.342;2022-07-23T00:25:12;99395.50;;;25.27;nan
38033;BME280;23841;48.524;1.342;2022-07-23T00:27:38;99421.84;;;25.26;nan
38033;BME280;23841;48.524;1.342;2022-07-23T00:30:03;99409.22;;;25.25;nan
38033;BME280;23841;48.524;1.342;2022-07-23T00:32:29;99399.19;;;25.26;nan
38033;BME280;23841;48.524;1.342;2022-07-23T00:34:55;99409.34;;;25.24;nan
38033;BME280;23841;48.524;1.342;2022-07-23T00:37:20;99395.75;;;25.24;nan
38033;BME280;23841;48.524;1.342;2022-07-23T00:39:45;99417.50;;;25.24;nan
38033;BME280;23841;48.524;1.342;2022-07-23T00:42:11;99394.03;;;25.22;nan
38033;BME280;23841;48.524;1.342;2022-07-23T00:44:36;99392.78;;;25.15;nan
38033;BME280;23841;48.524;1.342;2022-07-23T00:47:02;99428.59;;;25.20;nan
38033;BME280;23841;48.524;1.342;2022-07-23T00:49:29;99405.03;;;25.21;nan
38033;BME280;23841;48.524;1.342;2022-07-23T00:51:55;99442.44;;;25.17;nan
38033;BME280;23841;48.524;1.342;2022-07-23T00:54:23;99430.97;;;25.14;nan
38033;BME280;23841;48.524;1.342;2022-07-23T00:56:49;99418.88;;;25.18;nan
38033;BME280;23841;48.524;1.342;2022-07-23T00:59:15;99420.22;;;25.12;nan
38033;BME280;23841;48.524;1.342;2022-07-23T01:01:41;99398.22;;;25.15;nan
38033;BME280;23841;48.524;1.342;2022-07-23T01:04:06;99391.06;;;25.14;nan
38033;BME280;23841;48.524;1.342;2022-07-23T01:06:36;99395.78;;;25.12;nan
38033;BME280;23841;48.524;1.342;2022-07-23T01:09:04;99393.06;;;25.12;nan
38033;BME280;23841;48.524;1.342;2022-07-23T01:11:32;99385.88;;;25.11;nan
38033;BME280;23841;48.524;1.342;2022-07-23T01:13:58;99396.63;;;25.01;nan
38033;BME280;23841;48.524;1.342;2022-07-23T01:16:23;99394.16;;;25.10;nan
38033;BME280;23841;48.524;1.342;2022-07-23T01:18:49;99401.56;;;25.08;nan
38033;BME280;23841;48.524;1.342;2022-07-23T01:21:17;99411.56;;;25.07;nan
38033;BME280;23841;48.524;1.342;2022-07-23T01:23:43;99433.78;;;25.01;nan
38033;BME280;23841;48.524;1.342;2022-07-23T01:26:09;99408.09;;;25.05;nan
38033;BME280;23841;48.524;1.342;2022-07-23T01:28:34;99410.09;;;25.03;nan
38033;BME280;23841;48.524;1.342;2022-07-23T01:31:00;99387.25;;;25.05;nan
38033;BME280;23841;48.524;1.342;2022-07-23T01:33:26;99399.81;;;24.95;nan
38033;BME280;23841;48.524;1.342;2022-07-23T01:35:51;99418.38;;;25.01;nan
38033;BME280;23841;48.524;1.342;2022-07-23T01:38:16;99409.47;;;24.99;nan
38033;BME280;23841;48.524;1.342;2022-07-23T01:40:42;99415.91;;;24.98;nan
38033;BME280;23841;48.524;1.342;2022-07-23T01:43:07;99416.00;;;24.97;nan
38033;BME280;23841;48.524;1.342;2022-07-23T01:45:32;99413.19;;;24.98;nan
38033;BME280;23841;48.524;1.342;2022-07-23T01:47:58;99410.56;;;24.97;nan
38033;BME280;23841;48.524;1.342;2022-07-23T01:50:23;99401.94;;;24.92;nan
38033;BME280;23841;48.524;1.342;2022-07-23T01:52:49;99438.75;;;24.96;nan
38033;BME280;23841;48.524;1.342;2022-07-23T01:55:14;99416.25;;;24.94;nan
38033;BME280;23841;48.524;1.342;2022-07-23T01:57:40;99399.94;;;24.94;nan
38033;BME280;23841;48.524;1.342;2022-07-23T02:00:06;99424.53;;;24.92;nan
38033;BME280;23841;48.524;1.342;2022-07-23T02:02:31;99403.16;;;24.87;nan
38033;BME280;23841;48.524;1.342;2022-07-23T02:04:57;99389.34;;;24.91;nan
38033;BME280;23841;48.524;1.342;2022-07-23T02:07:22;99385.25;;;24.85;nan
38033;BME280;23841;48.524;1.342;2022-07-23T02:09:47;99403.91;;;24.90;nan
38033;BME280;23841;48.524;1.342;2022-07-23T02:12:13;99414.75;;;24.90;nan
38033;BME280;23841;48.524;1.342;2022-07-23T02:14:39;99398.47;;;24.90;nan
38033;BME280;23841;48.524;1.342;2022-07-23T02:17:04;99407.72;;;24.87;nan
38033;BME280;23841;48.524;1.342;2022-07-23T02:19:30;99435.78;;;24.87;nan
38033;BME280;23841;48.524;1.342;2022-07-23T02:24:20;99432.06;;;24.88;nan
38033;BME280;23841;48.524;1.342;2022-07-23T02:26:46;99417.97;;;24.83;nan
38033;BME280;23841;48.524;1.342;2022-07-23T02:29:11;99417.97;;;24.83;nan
38033;BME280;23841;48.524;1.342;2022-07-23T02:31:37;99448.13;;;24.80;nan
38033;BME280;23841;48.524;1.342;2022-07-23T02:34:02;99419.94;;;24.81;nan
38033;BME280;23841;48.524;1.342;2022-07-23T02:36:29;99477.72;;;24.72;nan
38033;BME280;23841;48.524;1.342;2022-07-23T02:38:54;99399.00;;;24.59;nan
38033;BME280;23841;48.524;1.342;2022-07-23T02:41:20;99443.41;;;24.82;nan
38033;BME280;23841;48.524;1.342;2022-07-23T02:43:45;99491.44;;;24.70;nan
38033;BME280;23841;48.524;1.342;2022-07-23T02:46:11;99419.22;;;24.79;nan
38033;BME280;23841;48.524;1.342;2022-07-23T02:48:36;99436.72;;;24.75;nan
38033;BME280;23841;48.524;1.342;2022-07-23T02:51:02;99440.69;;;24.71;nan
38033;BME280;23841;48.524;1.342;2022-07-23T02:53:27;99445.97;;;24.73;nan
38033;BME280;23841;48.524;1.342;2022-07-23T02:55:53;99439.91;;;24.69;nan
38033;BME280;23841;48.524;1.342;2022-07-23T02:58:18;99432.78;;;24.68;nan
38033;BME280;23841;48.524;1.342;2022-07-23T03:00:44;99330.91;;;24.04;nan
38033;BME280;23841;48.524;1.342;2022-07-23T03:03:09;99464.59;;;24.66;nan
38033;BME280;23841;48.524;1.342;2022-07-23T03:05:35;99441.03;;;24.66;nan
38033;BME280;23841;48.524;1.342;2022-07-23T03:08:00;99450.41;;;24.62;nan
38033;BME280;23841;48.524;1.342;2022-07-23T03:10:26;99473.00;;;24.63;nan
38033;BME280;23841;48.524;1.342;2022-07-23T03:12:51;99436.53;;;24.54;nan
38033;BME280;23841;48.524;1.342;2022-07-23T03:15:17;99436.16;;;24.59;nan
38033;BME280;23841;48.524;1.342;2022-07-23T03:17:42;99457.88;;;24.47;nan
38033;BME280;23841;48.524;1.342;2022-07-23T03:20:08;99444.56;;;24.56;nan
38033;BME280;23841;48.524;1.342;2022-07-23T03:22:34;99444.16;;;24.49;nan
38033;BME280;23841;48.524;1.342;2022-07-23T03:24:59;99442.94;;;24.53;nan
38033;BME280;23841;48.524;1.342;2022-07-23T03:27:26;99459.47;;;24.50;nan
38033;BME280;23841;48.524;1.342;2022-07-23T03:29:53;99441.56;;;24.47;nan
38033;BME280;23841;48.524;1.342;2022-07-23T03:32:20;99496.00;;;24.46;nan
38033;BME280;23841;48.524;1.342;2022-07-23T03:34:45;99437.59;;;24.40;nan
38033;BME280;23841;48.524;1.342;2022-07-23T03:37:11;99455.38;;;24.44;nan
38033;BME280;23841;48.524;1.342;2022-07-23T03:39:36;99523.47;;;24.41;nan
38033;BME280;23841;48.524;1.342;2022-07-23T03:42:02;99464.63;;;24.42;nan
38033;BME280;23841;48.524;1.342;2022-07-23T03:44:28;99413.19;;;24.40;nan
38033;BME280;23841;48.524;1.342;2022-07-23T03:46:53;99440.03;;;24.32;nan
38033;BME280;23841;48.524;1.342;2022-07-23T03:49:19;99476.84;;;24.36;nan
38033;BME280;23841;48.524;1.342;2022-07-23T03:51:44;99506.94;;;24.33;nan
38033;BME280;23841;48.524;1.342;2022-07-23T03:54:10;99465.97;;;24.36;nan
38033;BME280;23841;48.524;1.342;2022-07-23T03:56:35;99519.00;;;24.29;nan
38033;BME280;23841;48.524;1.342;2022-07-23T03:59:01;99463.59;;;24.31;nan
38033;BME280;23841;48.524;1.342;2022-07-23T04:01:26;99559.59;;;24.30;nan
38033;BME280;23841;48.524;1.342;2022-07-23T04:03:51;99445.19;;;24.24;nan
38033;BME280;23841;48.524;1.342;2022-07-23T04:06:17;99153.25;;;25.17;nan
38033;BME280;23841;48.524;1.342;2022-07-23T04:08:43;99475.44;;;24.30;nan
38033;BME280;23841;48.524;1.342;2022-07-23T04:11:08;99461.47;;;24.24;nan
38033;BME280;23841;48.524;1.342;2022-07-23T04:13:33;99490.84;;;24.30;nan
38033;BME280;23841;48.524;1.342;2022-07-23T04:15:59;99481.97;;;24.28;nan
38033;BME280;23841;48.524;1.342;2022-07-23T04:18:24;99480.25;;;24.27;nan
38033;BME280;23841;48.524;1.342;2022-07-23T04:20:53;99471.34;;;24.25;nan
38033;BME280;23841;48.524;1.342;2022-07-23T04:23:18;99510.34;;;24.24;nan
38033;BME280;23841;48.524;1.342;2022-07-23T04:25:44;99477.34;;;24.17;nan
38033;BME280;23841;48.524;1.342;2022-07-23T04:28:09;99484.63;;;24.16;nan
38033;BME280;23841;48.524;1.342;2022-07-23T04:30:35;99473.53;;;24.19;nan
38033;BME280;23841;48.524;1.342;2022-07-23T04:33:00;99479.41;;;24.13;nan
38033;BME280;23841;48.524;1.342;2022-07-23T04:35:26;99514.38;;;24.18;nan
38033;BME280;23841;48.524;1.342;2022-07-23T04:37:51;99484.84;;;24.13;nan
38033;BME280;23841;48.524;1.342;2022-07-23T04:40:17;99498.22;;;24.16;nan
38033;BME280;23841;48.524;1.342;2022-07-23T04:42:43;99492.13;;;24.13;nan
38033;BME280;23841;48.524;1.342;2022-07-23T04:45:08;99496.94;;;24.09;nan
38033;BME280;23841;48.524;1.342;2022-07-23T04:47:34;99486.94;;;24.10;nan
38033;BME280;23841;48.524;1.342;2022-07-23T04:49:59;99503.22;;;24.10;nan
38033;BME280;23841;48.524;1.342;2022-07-23T04:52:25;99493.47;;;24.07;nan
38033;BME280;23841;48.524;1.342;2022-07-23T04:54:50;99488.03;;;24.07;nan
38033;BME280;23841;48.524;1.342;2022-07-23T04:57:16;99513.44;;;24.06;nan
38033;BME280;23841;48.524;1.342;2022-07-23T04:59:41;99504.56;;;24.04;nan
38033;BME280;23841;48.524;1.342;2022-07-23T05:02:06;99488.28;;;24.04;nan
38033;BME280;23841;48.524;1.342;2022-07-23T05:04:32;99524.34;;;23.80;nan
38033;BME280;23841;48.524;1.342;2022-07-23T05:06:59;99536.22;;;24.03;nan
38033;BME280;23841;48.524;1.342;2022-07-23T05:09:24;99518.34;;;24.01;nan
38033;BME280;23841;48.524;1.342;2022-07-23T05:11:50;99497.50;;;24.01;nan
38033;BME280;23841;48.524;1.342;2022-07-23T05:14:15;99595.28;;;24.00;nan
38033;BME280;23841;48.524;1.342;2022-07-23T05:16:41;99550.91;;;24.01;nan
38033;BME280;23841;48.524;1.342;2022-07-23T05:19:07;99523.00;;;23.99;nan
38033;BME280;23841;48.524;1.342;2022-07-23T05:21:32;99507.63;;;23.99;nan
38033;BME280;23841;48.524;1.342;2022-07-23T05:23:58;99506.00;;;23.97;nan
38033;BME280;23841;48.524;1.342;2022-07-23T05:26:24;99501.19;;;24.00;nan
38033;BME280;23841;48.524;1.342;2022-07-23T05:28:50;99511.31;;;23.98;nan
38033;BME280;23841;48.524;1.342;2022-07-23T05:31:15;99559.94;;;23.89;nan
38033;BME280;23841;48.524;1.342;2022-07-23T05:33:41;99519.03;;;23.92;nan
38033;BME280;23841;48.524;1.342;2022-07-23T05:36:07;99594.00;;;23.93;nan
38033;BME280;23841;48.524;1.342;2022-07-23T05:38:32;99527.69;;;23.97;nan
38033;BME280;23841;48.524;1.342;2022-07-23T05:40:58;99535.84;;;23.97;nan
38033;BME280;23841;48.524;1.342;2022-07-23T05:43:24;99516.97;;;23.95;nan
38033;BME280;23841;48.524;1.342;2022-07-23T05:45:49;99521.50;;;23.95;nan
38033;BME280;23841;48.524;1.342;2022-07-23T05:48:15;99529.53;;;23.96;nan
38033;BME280;23841;48.524;1.342;2022-07-23T05:50:40;99544.09;;;23.95;nan
38033;BME280;23841;48.524;1.342;2022-07-23T05:53:06;99536.81;;;23.96;nan
38033;BME280;23841;48.524;1.342;2022-07-23T05:55:31;99529.75;;;23.93;nan
38033;BME280;23841;48.524;1.342;2022-07-23T05:57:57;99522.47;;;23.94;nan
38033;BME280;23841;48.524;1.342;2022-07-23T06:00:24;99525.66;;;23.88;nan
38033;BME280;23841;48.524;1.342;2022-07-23T06:02:49;99529.75;;;23.93;nan
38033;BME280;23841;48.524;1.342;2022-07-23T06:05:15;99523.47;;;23.93;nan
38033;BME280;23841;48.524;1.342;2022-07-23T06:07:41;99530.84;;;23.91;nan
38033;BME280;23841;48.524;1.342;2022-07-23T06:10:06;99564.38;;;23.90;nan
38033;BME280;23841;48.524;1.342;2022-07-23T06:12:32;99527.28;;;23.90;nan
38033;BME280;23841;48.524;1.342;2022-07-23T06:14:57;99518.25;;;23.90;nan
38033;BME280;23841;48.524;1.342;2022-07-23T06:17:23;99548.88;;;23.92;nan
38033;BME280;23841;48.524;1.342;2022-07-23T06:19:48;99520.44;;;23.84;nan
38033;BME280;23841;48.524;1.342;2022-07-23T06:22:14;99516.53;;;23.89;nan
38033;BME280;23841;48.524;1.342;2022-07-23T06:24:39;99539.09;;;23.89;nan
38033;BME280;23841;48.524;1.342;2022-07-23T06:27:05;99531.94;;;23.88;nan
38033;BME280;23841;48.524;1.342;2022-07-23T06:29:30;99510.22;;;23.88;nan
38033;BME280;23841;48.524;1.342;2022-07-23T06:31:55;99498.84;;;23.83;nan
38033;BME280;23841;48.524;1.342;2022-07-23T06:34:21;99528.44;;;23.86;nan
38033;BME280;23841;48.524;1.342;2022-07-23T06:36:46;99513.91;;;23.87;nan
38033;BME280;23841;48.524;1.342;2022-07-23T06:39:12;99542.25;;;23.83;nan
38033;BME280;23841;48.524;1.342;2022-07-23T06:41:37;99526.59;;;23.86;nan
38033;BME280;23841;48.524;1.342;2022-07-23T06:44:03;99515.75;;;23.86;nan
38033;BME280;23841;48.524;1.342;2022-07-23T06:46:28;99558.41;;;23.84;nan
38033;BME280;23841;48.524;1.342;2022-07-23T06:48:53;99539.22;;;23.88;nan
38033;BME280;23841;48.524;1.342;2022-07-23T06:51:19;99452.53;;;23.36;nan
38033;BME280;23841;48.524;1.342;2022-07-23T06:53:44;99550.16;;;23.86;nan
38033;BME280;23841;48.524;1.342;2022-07-23T06:56:10;99535.06;;;23.82;nan
38033;BME280;23841;48.524;1.342;2022-07-23T06:58:35;99541.25;;;23.84;nan
38033;BME280;23841;48.524;1.342;2022-07-23T07:01:01;99558.41;;;23.84;nan
38033;BME280;23841;48.524;1.342;2022-07-23T07:03:26;99554.91;;;23.82;nan
38033;BME280;23841;48.524;1.342;2022-07-23T07:05:52;99530.84;;;23.78;nan
38033;BME280;23841;48.524;1.342;2022-07-23T07:08:18;99542.25;;;23.83;nan
38033;BME280;23841;48.524;1.342;2022-07-23T07:10:44;99556.66;;;23.83;nan
38033;BME280;23841;48.524;1.342;2022-07-23T07:13:09;99561.84;;;23.86;nan
38033;BME280;23841;48.524;1.342;2022-07-23T07:15:35;99564.28;;;23.91;nan
38033;BME280;23841;48.524;1.342;2022-07-23T07:18:00;99568.41;;;23.97;nan
38033;BME280;23841;48.524;1.342;2022-07-23T07:20:27;99559.47;;;23.95;nan
38033;BME280;23841;48.524;1.342;2022-07-23T07:22:52;99564.59;;;23.99;nan
38033;BME280;23841;48.524;1.342;2022-07-23T07:25:18;99585.19;;;24.02;nan
38033;BME280;23841;48.524;1.342;2022-07-23T07:27:43;99580.53;;;24.04;nan
38033;BME280;23841;48.524;1.342;2022-07-23T07:30:11;99569.44;;;24.07;nan
38033;BME280;23841;48.524;1.342;2022-07-23T07:32:38;99587.22;;;24.11;nan
38033;BME280;23841;48.524;1.342;2022-07-23T07:35:04;99574.41;;;24.13;nan
38033;BME280;23841;48.524;1.342;2022-07-23T07:37:30;99558.22;;;24.12;nan
38033;BME280;23841;48.524;1.342;2022-07-23T07:39:55;99569.97;;;24.12;nan
38033;BME280;23841;48.524;1.342;2022-07-23T07:42:21;99592.84;;;24.21;nan
38033;BME280;23841;48.524;1.342;2022-07-23T07:44:46;99662.22;;;24.25;nan
38033;BME280;23841;48.524;1.342;2022-07-23T07:47:12;99586.09;;;24.27;nan
38033;BME280;23841;48.524;1.342;2022-07-23T07:49:39;99598.34;;;24.32;nan
38033;BME280;23841;48.524;1.342;2022-07-23T07:52:04;99592.78;;;24.34;nan
38033;BME280;23841;48.524;1.342;2022-07-23T07:54:31;99589.09;;;24.35;nan
38033;BME280;23841;48.524;1.342;2022-07-23T07:56:57;99576.50;;;24.34;nan
38033;BME280;23841;48.524;1.342;2022-07-23T07:59:22;99604.06;;;24.41;nan
38033;BME280;23841;48.524;1.342;2022-07-23T08:01:48;99583.31;;;24.40;nan
38033;BME280;23841;48.524;1.342;2022-07-23T08:04:13;99582.75;;;24.47;nan
38033;BME280;23841;48.524;1.342;2022-07-23T08:06:39;99584.63;;;24.47;nan
38033;BME280;23841;48.524;1.342;2022-07-23T08:09:04;99581.00;;;24.46;nan
38033;BME280;23841;48.524;1.342;2022-07-23T08:11:29;99598.56;;;24.53;nan
38033;BME280;23841;48.524;1.342;2022-07-23T08:13:55;99628.84;;;24.36;nan
38033;BME280;23841;48.524;1.342;2022-07-23T08:16:21;99625.28;;;24.60;nan
38033;BME280;23841;48.524;1.342;2022-07-23T08:18:46;99611.63;;;24.61;nan
38033;BME280;23841;48.524;1.342;2022-07-23T08:21:12;99610.78;;;24.61;nan
38033;BME280;23841;48.524;1.342;2022-07-23T08:23:37;99609.84;;;24.60;nan
38033;BME280;23841;48.524;1.342;2022-07-23T08:26:02;99598.97;;;24.60;nan
38033;BME280;23841;48.524;1.342;2022-07-23T08:28:28;99606.28;;;24.60;nan
38033;BME280;23841;48.524;1.342;2022-07-23T08:30:53;99627.91;;;24.61;nan
38033;BME280;23841;48.524;1.342;2022-07-23T08:33:19;99626.06;;;24.62;nan
38033;BME280;23841;48.524;1.342;2022-07-23T08:35:47;99622.38;;;24.63;nan
38033;BME280;23841;48.524;1.342;2022-07-23T08:38:17;99614.22;;;24.63;nan
38033;BME280;23841;48.524;1.342;2022-07-23T08:40:52;99623.13;;;24.65;nan
38033;BME280;23841;48.524;1.342;2022-07-23T08:43:19;99636.91;;;24.62;nan
38033;BME280;23841;48.524;1.342;2022-07-23T08:45:49;99609.56;;;24.65;nan
38033;BME280;23841;48.524;1.342;2022-07-23T08:48:20;99638.31;;;24.67;nan
38033;BME280;23841;48.524;1.342;2022-07-23T08:50:48;99634.72;;;24.67;nan
38033;BME280;23841;48.524;1.342;2022-07-23T08:53:15;99596.72;;;24.67;nan
38033;BME280;23841;48.524;1.342;2022-07-23T08:55:44;99622.91;;;24.68;nan
38033;BME280;23841;48.524;1.342;2022-07-23T08:58:10;99608.53;;;24.66;nan
38033;BME280;23841;48.524;1.342;2022-07-23T09:00:35;99623.50;;;24.71;nan
38033;BME280;23841;48.524;1.342;2022-07-23T09:03:01;99608.97;;;24.73;nan
38033;BME280;23841;48.524;1.342;2022-07-23T09:05:26;99589.22;;;24.70;nan
38033;BME280;23841;48.524;1.342;2022-07-23T09:08:18;99616.88;;;24.76;nan
38033;BME280;23841;48.524;1.342;2022-07-23T09:10:58;99601.34;;;24.78;nan
38033;BME280;23841;48.524;1.342;2022-07-23T09:18:54;99606.41;;;24.82;nan
38033;BME280;23841;48.524;1.342;2022-07-23T09:21:23;99606.53;;;24.81;nan
38033;BME280;23841;48.524;1.342;2022-07-23T09:34:26;99594.19;;;24.88;nan
38033;BME280;23841;48.524;1.342;2022-07-23T09:36:56;99602.34;;;24.88;nan
38033;BME280;23841;48.524;1.342;2022-07-23T09:39:33;99601.25;;;24.91;nan
38033;BME280;23841;48.524;1.342;2022-07-23T09:42:20;99619.28;;;24.92;nan
38033;BME280;23841;48.524;1.342;2022-07-23T09:44:51;99619.28;;;24.92;nan
38033;BME280;23841;48.524;1.342;2022-07-23T09:47:18;99601.38;;;24.89;nan
38033;BME280;23841;48.524;1.342;2022-07-23T09:49:59;99626.56;;;24.91;nan
38033;BME280;23841;48.524;1.342;2022-07-23T09:52:27;99592.00;;;24.93;nan
38033;BME280;23841;48.524;1.342;2022-07-23T09:54:59;99588.19;;;24.96;nan
38033;BME280;23841;48.524;1.342;2022-07-23T09:57:26;99608.81;;;24.98;nan
38033;BME280;23841;48.524;1.342;2022-07-23T09:59:52;99605.09;;;24.99;nan
38033;BME280;23841;48.524;1.342;2022-07-23T10:02:18;99615.25;;;24.97;nan
38033;BME280;23841;48.524;1.342;2022-07-23T10:04:44;99591.63;;;24.98;nan
38033;BME280;23841;48.524;1.342;2022-07-23T10:07:12;99583.09;;;24.91;nan
38033;BME280;23841;48.524;1.342;2022-07-23T10:09:40;99612.16;;;25.02;nan
38033;BME280;23841;48.524;1.342;2022-07-23T10:12:13;99619.59;;;25.11;nan
38033;BME280;23841;48.524;1.342;2022-07-23T10:14:58;99602.09;;;25.15;nan
38033;BME280;23841;48.524;1.342;2022-07-23T10:17:23;99652.84;;;25.15;nan
38033;BME280;23841;48.524;1.342;2022-07-23T10:19:49;99582.81;;;25.18;nan
38033;BME280;23841;48.524;1.342;2022-07-23T10:22:20;99575.81;;;24.92;nan
38033;BME280;23841;48.524;1.342;2022-07-23T10:31:14;99620.94;;;25.41;nan
38033;BME280;23841;48.524;1.342;2022-07-23T10:36:49;99628.50;;;25.49;nan
38033;BME280;23841;48.524;1.342;2022-07-23T10:39:31;99648.91;;;25.54;nan
38033;BME280;23841;48.524;1.342;2022-07-23T10:42:12;99643.47;;;25.54;nan
38033;BME280;23841;48.524;1.342;2022-07-23T10:44:41;99619.13;;;25.53;nan
38033;BME280;23841;48.524;1.342;2022-07-23T10:47:09;99616.41;;;25.53;nan
38033;BME280;23841;48.524;1.342;2022-07-23T10:49:53;99630.84;;;25.53;nan
38033;BME280;23841;48.524;1.342;2022-07-23T10:52:21;99634.34;;;25.55;nan
38033;BME280;23841;48.524;1.342;2022-07-23T10:57:49;99620.75;;;25.55;nan
38033;BME280;23841;48.524;1.342;2022-07-23T11:00:20;99615.66;;;25.62;nan
38033;BME280;23841;48.524;1.342;2022-07-23T11:02:47;99615.56;;;25.64;nan
38033;BME280;23841;48.524;1.342;2022-07-23T11:05:15;99618.03;;;25.67;nan
38033;BME280;23841;48.524;1.342;2022-07-23T11:16:03;99634.72;;;25.73;nan
38033;BME280;23841;48.524;1.342;2022-07-23T11:24:04;99625.22;;;25.79;nan
38033;BME280;23841;48.524;1.342;2022-07-23T11:34:45;99609.22;;;25.86;nan
38033;BME280;23841;48.524;1.342;2022-07-23T11:37:27;99618.41;;;25.85;nan
38033;BME280;23841;48.524;1.342;2022-07-23T11:39:57;99624.44;;;25.88;nan
38033;BME280;23841;48.524;1.342;2022-07-23T11:42:24;99634.22;;;25.91;nan
38033;BME280;23841;48.524;1.342;2022-07-23T11:44:50;99605.91;;;25.94;nan
38033;BME280;23841;48.524;1.342;2022-07-23T11:47:24;99600.19;;;25.97;nan
38033;BME280;23841;48.524;1.342;2022-07-23T11:49:53;99621.97;;;25.97;nan
38033;BME280;23841;48.524;1.342;2022-07-23T11:52:18;99597.34;;;25.98;nan
38033;BME280;23841;48.524;1.342;2022-07-23T11:54:58;99616.09;;;26.03;nan
38033;BME280;23841;48.524;1.342;2022-07-23T11:57:30;99607.91;;;26.03;nan
38033;BME280;23841;48.524;1.342;2022-07-23T12:00:03;99587.22;;;26.00;nan
38033;BME280;23841;48.524;1.342;2022-07-23T12:02:30;99603.47;;;26.02;nan
38033;BME280;23841;48.524;1.342;2022-07-23T12:04:55;99615.56;;;26.09;nan
38033;BME280;23841;48.524;1.342;2022-07-23T12:09:52;99617.06;;;26.13;nan
38033;BME280;23841;48.524;1.342;2022-07-23T12:12:18;99618.53;;;26.17;nan
38033;BME280;23841;48.524;1.342;2022-07-23T12:14:52;99603.81;;;26.20;nan
38033;BME280;23841;48.524;1.342;2022-07-23T12:17:19;99620.88;;;26.22;nan
38033;BME280;23841;48.524;1.342;2022-07-23T12:19:46;99615.19;;;26.25;nan
38033;BME280;23841;48.524;1.342;2022-07-23T12:22:11;99605.16;;;26.26;nan
38033;BME280;23841;48.524;1.342;2022-07-23T12:24:59;99582.13;;;26.30;nan
38033;BME280;23841;48.524;1.342;2022-07-23T12:27:26;99588.19;;;26.33;nan
38033;BME280;23841;48.524;1.342;2022-07-23T12:29:52;99615.31;;;26.35;nan
38033;BME280;23841;48.524;1.342;2022-07-23T12:34:44;99589.53;;;26.39;nan
38033;BME280;23841;48.524;1.342;2022-07-23T12:37:28;99632.84;;;26.42;nan
38033;BME280;23841;48.524;1.342;2022-07-23T12:39:54;99593.75;;;26.32;nan
38033;BME280;23841;48.524;1.342;2022-07-23T12:42:19;99616.38;;;26.44;nan
38033;BME280;23841;48.524;1.342;2022-07-23T12:45:11;99594.19;;;26.48;nan
38033;BME280;23841;48.524;1.342;2022-07-23T12:48:06;99619.47;;;26.50;nan
38033;BME280;23841;48.524;1.342;2022-07-23T12:53:24;99599.16;;;26.54;nan
38033;BME280;23841;48.524;1.342;2022-07-23T12:55:57;99644.44;;;26.55;nan
38033;BME280;23841;48.524;1.342;2022-07-23T12:58:23;99602.88;;;26.53;nan
38033;BME280;23841;48.524;1.342;2022-07-23T13:00:55;99587.72;;;26.61;nan
38033;BME280;23841;48.524;1.342;2022-07-23T13:05:50;99603.56;;;26.67;nan
38033;BME280;23841;48.524;1.342;2022-07-23T13:08:16;99616.19;;;26.68;nan
38033;BME280;23841;48.524;1.342;2022-07-23T13:10:42;99598.13;;;26.55;nan
38033;BME280;23841;48.524;1.342;2022-07-23T13:13:11;99603.38;;;26.47;nan
38033;BME280;23841;48.524;1.342;2022-07-23T13:15:36;99591.25;;;26.40;nan
38033;BME280;23841;48.524;1.342;2022-07-23T13:18:02;99602.63;;;26.45;nan
38033;BME280;23841;48.524;1.342;2022-07-23T13:20:27;99588.03;;;26.46;nan
38033;BME280;23841;48.524;1.342;2022-07-23T13:22:53;99602.63;;;26.45;nan
38033;BME280;23841;48.524;1.342;2022-07-23T13:25:18;99612.28;;;26.49;nan
38033;BME280;23841;48.524;1.342;2022-07-23T13:27:44;99598.53;;;26.51;nan
38033;BME280;23841;48.524;1.342;2022-07-23T13:30:10;99588.50;;;26.51;nan
38033;BME280;23841;48.524;1.342;2022-07-23T13:32:36;99718.75;;;26.57;nan
38033;BME280;23841;48.524;1.342;2022-07-23T13:35:03;99601.75;;;26.56;nan
38033;BME280;23841;48.524;1.342;2022-07-23T13:37:29;99617.47;;;26.52;nan
38033;BME280;23841;48.524;1.342;2022-07-23T13:39:54;99600.63;;;26.58;nan
38033;BME280;23841;48.524;1.342;2022-07-23T13:42:19;99605.19;;;26.58;nan
38033;BME280;23841;48.524;1.342;2022-07-23T13:44:45;99599.16;;;26.54;nan
38033;BME280;23841;48.524;1.342;2022-07-23T13:47:10;99602.34;;;26.60;nan
38033;BME280;23841;48.524;1.342;2022-07-23T13:49:36;99584.00;;;26.62;nan
38033;BME280;23841;48.524;1.342;2022-07-23T13:52:04;99577.44;;;26.64;nan
38033;BME280;23841;48.524;1.342;2022-07-23T13:54:30;99590.94;;;26.66;nan
38033;BME280;23841;48.524;1.342;2022-07-23T13:56:55;99592.69;;;26.67;nan
38033;BME280;23841;48.524;1.342;2022-07-23T13:59:21;99579.28;;;26.64;nan
38033;BME280;23841;48.524;1.342;2022-07-23T14:01:47;99564.31;;;26.69;nan
38033;BME280;23841;48.524;1.342;2022-07-23T14:04:12;99587.00;;;26.70;nan
38033;BME280;23841;48.524;1.342;2022-07-23T14:06:37;99590.78;;;26.79;nan
38033;BME280;23841;48.524;1.342;2022-07-23T14:09:03;99558.94;;;26.79;nan
38033;BME280;23841;48.524;1.342;2022-07-23T14:11:28;99560.41;;;26.83;nan
38033;BME280;23841;48.524;1.342;2022-07-23T14:13:55;99594.00;;;26.84;nan
38033;BME280;23841;48.524;1.342;2022-07-23T14:16:21;99590.00;;;26.88;nan
38033;BME280;23841;48.524;1.342;2022-07-23T14:18:47;99572.69;;;26.89;nan
38033;BME280;23841;48.524;1.342;2022-07-23T14:21:12;99581.44;;;26.92;nan
38033;BME280;23841;48.524;1.342;2022-07-23T14:23:38;99578.56;;;26.94;nan
38033;BME280;23841;48.524;1.342;2022-07-23T14:26:03;99554.03;;;26.94;nan